createdAt,value
2022-10-29T00:00:59.438Z,18.18
2022-10-29T00:01:59.473Z,18.12
2022-10-29T00:02:59.467Z,18.17
2022-10-29T00:03:59.375Z,18.17
2022-10-29T00:04:59.362Z,18.12
2022-10-29T00:05:59.383Z,18.06
2022-10-29T00:06:59.338Z,18.10
2022-10-29T00:07:59.403Z,18.06
2022-10-29T00:08:59.306Z,18.10
2022-10-29T00:09:59.311Z,17.97
2022-10-29T00:10:59.301Z,17.99
2022-10-29T00:11:59.275Z,18.04
2022-10-29T00:12:59.263Z,17.95
2022-10-29T00:13:59.255Z,17.94
2022-10-29T00:14:59.259Z,18.10
2022-10-29T00:15:59.233Z,17.99
2022-10-29T00:16:59.219Z,18.04
2022-10-29T00:17:59.357Z,18.04
2022-10-29T00:18:59.202Z,17.94
2022-10-29T00:19:59.226Z,18.02
2022-10-29T00:20:59.186Z,17.99
2022-10-29T00:21:59.182Z,17.95
2022-10-29T00:22:59.339Z,18.00
2022-10-29T00:23:59.143Z,17.97
2022-10-29T00:24:59.131Z,17.89
2022-10-29T00:25:59.130Z,17.92
2022-10-29T00:26:59.108Z,17.88
2022-10-29T00:27:59.106Z,17.92
2022-10-29T00:28:59.086Z,17.91
2022-10-29T00:29:59.088Z,17.84
2022-10-29T00:30:59.066Z,17.84
2022-10-29T00:31:59.222Z,17.87
2022-10-29T00:32:59.100Z,17.81
2022-10-29T00:33:59.032Z,17.84
2022-10-29T00:34:59.046Z,17.81
2022-10-29T00:35:59.012Z,17.81
2022-10-29T00:36:58.999Z,17.84
2022-10-29T00:37:59.059Z,17.84
2022-10-29T00:38:58.975Z,17.79
2022-10-29T00:39:58.967Z,17.73
2022-10-29T00:40:58.977Z,17.74
2022-10-29T00:41:58.948Z,17.79
2022-10-29T00:42:58.934Z,17.76
2022-10-29T00:43:58.924Z,17.79
2022-10-29T00:44:58.914Z,17.74
2022-10-29T00:45:58.912Z,17.79
2022-10-29T00:46:58.889Z,17.70
2022-10-29T00:47:59.174Z,17.73
2022-10-29T00:48:58.868Z,17.82
2022-10-29T00:49:58.870Z,17.76
2022-10-29T00:50:58.843Z,17.67
2022-10-29T00:51:58.834Z,17.63
2022-10-29T00:52:58.824Z,17.67
2022-10-29T00:53:58.839Z,17.62
2022-10-29T00:54:58.828Z,17.51
2022-10-29T00:55:58.792Z,17.63
2022-10-29T00:56:58.778Z,17.59
2022-10-29T00:57:59.232Z,17.64
2022-10-29T00:58:58.758Z,17.59
2022-10-29T00:59:58.760Z,17.55
2022-10-29T01:00:58.735Z,17.63
2022-10-29T01:01:58.838Z,17.62
2022-10-29T01:02:59.273Z,17.54
2022-10-29T01:03:58.725Z,17.62
2022-10-29T01:04:58.718Z,17.53
2022-10-29T01:05:58.681Z,17.64
2022-10-29T01:06:58.677Z,17.63
2022-10-29T01:07:58.659Z,17.59
2022-10-29T01:08:58.647Z,17.64
2022-10-29T01:09:58.667Z,17.59
2022-10-29T01:10:58.631Z,17.63
2022-10-29T01:11:58.666Z,17.59
2022-10-29T01:12:58.861Z,17.59
2022-10-29T01:13:58.729Z,17.57
2022-10-29T01:14:58.667Z,17.62
2022-10-29T01:15:58.648Z,17.59
2022-10-29T01:16:58.559Z,17.67
2022-10-29T01:17:58.946Z,17.59
2022-10-29T01:18:58.558Z,17.51
2022-10-29T01:19:58.541Z,17.66
2022-10-29T01:20:58.514Z,17.59
2022-10-29T01:21:58.507Z,17.57
2022-10-29T01:22:58.494Z,17.62
2022-10-29T01:23:58.494Z,17.54
2022-10-29T01:24:58.469Z,17.62
2022-10-29T01:25:58.480Z,17.55
2022-10-29T01:26:58.448Z,17.62
2022-10-29T01:27:58.963Z,17.64
2022-10-29T01:28:58.443Z,17.63
2022-10-29T01:29:58.417Z,17.63
2022-10-29T01:30:58.405Z,17.55
2022-10-29T01:31:58.400Z,17.59
2022-10-29T01:32:58.719Z,17.62
2022-10-29T01:33:58.398Z,17.57
2022-10-29T01:34:58.363Z,17.55
2022-10-29T01:35:58.351Z,17.57
2022-10-29T01:36:58.339Z,17.55
2022-10-29T01:37:58.329Z,17.57
2022-10-29T01:38:58.382Z,17.59
2022-10-29T01:39:58.315Z,17.57
2022-10-29T01:40:58.295Z,17.57
2022-10-29T01:41:58.302Z,17.59
2022-10-29T01:42:58.558Z,17.57
2022-10-29T01:43:58.266Z,17.64
2022-10-29T01:44:58.260Z,17.62
2022-10-29T01:45:58.242Z,17.59
2022-10-29T01:46:58.294Z,17.57
2022-10-29T01:47:58.710Z,17.55
2022-10-29T01:48:58.205Z,17.59
2022-10-29T01:49:58.209Z,17.59
2022-10-29T01:50:58.187Z,17.55
2022-10-29T01:51:58.176Z,17.47
2022-10-29T01:52:58.162Z,17.55
2022-10-29T01:53:58.154Z,17.46
2022-10-29T01:54:58.157Z,17.55
2022-10-29T01:55:58.132Z,17.44
2022-10-29T01:56:58.128Z,17.46
2022-10-29T01:57:58.564Z,17.41
2022-10-29T01:58:58.098Z,17.40
2022-10-29T01:59:58.237Z,17.53
2022-10-29T02:00:58.154Z,17.50
2022-10-29T02:01:58.094Z,17.51
2022-10-29T02:02:58.335Z,17.44
2022-10-29T02:03:58.042Z,17.40
2022-10-29T02:04:58.045Z,17.43
2022-10-29T02:05:58.023Z,17.50
2022-10-29T02:06:58.009Z,17.43
2022-10-29T02:07:57.999Z,17.44
2022-10-29T02:08:57.985Z,17.54
2022-10-29T02:09:57.990Z,17.46
2022-10-29T02:10:58.083Z,17.47
2022-10-29T02:11:57.957Z,17.43
2022-10-29T02:12:58.467Z,17.48
2022-10-29T02:13:57.955Z,17.36
2022-10-29T02:14:57.932Z,17.46
2022-10-29T02:15:57.977Z,17.46
2022-10-29T02:16:57.950Z,17.43
2022-10-29T02:17:58.226Z,17.36
2022-10-29T02:18:57.885Z,17.44
2022-10-29T02:19:57.877Z,17.41
2022-10-29T02:20:57.909Z,17.32
2022-10-29T02:21:57.847Z,17.28
2022-10-29T02:23:49.080Z,17.30
2022-10-29T02:24:49.102Z,17.32
2022-10-29T02:25:49.187Z,17.28
2022-10-29T02:26:49.040Z,17.23
2022-10-29T02:27:49.034Z,17.29
2022-10-29T02:28:49.021Z,17.23
2022-10-29T02:29:49.037Z,17.23
2022-10-29T02:30:48.999Z,17.18
2022-10-29T02:31:48.989Z,17.18
2022-10-29T02:32:48.977Z,17.22
2022-10-29T02:33:48.966Z,17.23
2022-10-29T02:34:48.970Z,17.23
2022-10-29T02:35:56.702Z,17.14
2022-10-29T02:36:48.933Z,17.17
2022-10-29T02:37:48.924Z,17.17
2022-10-29T02:38:48.911Z,17.25
2022-10-29T02:39:48.941Z,17.20
2022-10-29T02:40:48.893Z,17.20
2022-10-29T02:41:48.881Z,17.22
2022-10-29T02:42:48.914Z,17.18
2022-10-29T02:43:48.880Z,17.22
2022-10-29T02:44:48.867Z,17.23
2022-10-29T02:45:48.853Z,17.23
2022-10-29T02:46:48.824Z,17.22
2022-10-29T02:47:48.814Z,17.22
2022-10-29T02:48:48.803Z,17.18
2022-10-29T02:49:48.806Z,17.28
2022-10-29T02:50:48.780Z,17.18
2022-10-29T02:51:48.771Z,17.28
2022-10-29T02:52:48.761Z,17.20
2022-10-29T02:53:48.748Z,17.29
2022-10-29T02:54:48.747Z,17.20
2022-10-29T02:55:48.729Z,17.23
2022-10-29T02:56:48.716Z,17.29
2022-10-29T02:57:48.710Z,17.22
2022-10-29T02:58:48.692Z,17.25
2022-10-29T02:59:48.696Z,17.26
2022-10-29T03:00:48.673Z,17.28
2022-10-29T03:01:48.821Z,17.25
2022-10-29T03:02:48.714Z,17.23
2022-10-29T03:03:48.639Z,17.28
2022-10-29T03:04:48.641Z,17.26
2022-10-29T03:05:49.212Z,17.32
2022-10-29T03:06:48.605Z,17.28
2022-10-29T03:07:48.597Z,17.29
2022-10-29T03:08:48.586Z,17.28
2022-10-29T03:09:48.588Z,17.29
2022-10-29T03:10:48.563Z,17.29
2022-10-29T03:11:48.553Z,17.33
2022-10-29T03:12:48.558Z,17.32
2022-10-29T03:13:48.534Z,17.28
2022-10-29T03:14:48.529Z,17.28
2022-10-29T03:15:48.513Z,17.32
2022-10-29T03:16:48.703Z,17.28
2022-10-29T03:17:48.525Z,17.29
2022-10-29T03:18:48.499Z,17.30
2022-10-29T03:19:48.476Z,17.26
2022-10-29T03:20:48.456Z,17.25
2022-10-29T03:21:48.444Z,17.26
2022-10-29T03:22:48.432Z,17.30
2022-10-29T03:23:48.455Z,17.32
2022-10-29T03:24:48.421Z,17.26
2022-10-29T03:25:52.903Z,17.30
2022-10-29T03:26:49.386Z,17.33
2022-10-29T03:27:48.392Z,17.25
2022-10-29T03:28:48.381Z,17.26
2022-10-29T03:29:48.359Z,17.28
2022-10-29T03:30:48.346Z,17.32
2022-10-29T03:31:48.333Z,17.28
2022-10-29T03:32:48.344Z,17.35
2022-10-29T03:33:48.340Z,17.26
2022-10-29T03:34:48.301Z,17.29
2022-10-29T03:35:48.351Z,17.32
2022-10-29T03:36:48.280Z,17.32
2022-10-29T03:37:48.280Z,17.30
2022-10-29T03:38:48.271Z,17.26
2022-10-29T03:39:48.247Z,17.32
2022-10-29T03:40:48.239Z,17.30
2022-10-29T03:41:48.230Z,17.20
2022-10-29T03:42:48.215Z,17.23
2022-10-29T03:43:48.332Z,17.25
2022-10-29T03:44:48.196Z,17.22
2022-10-29T03:45:48.182Z,17.22
2022-10-29T03:46:48.172Z,17.23
2022-10-29T03:47:48.163Z,17.18
2022-10-29T03:48:48.161Z,17.14
2022-10-29T03:49:48.161Z,17.14
2022-10-29T03:50:48.139Z,17.18
2022-10-29T03:51:48.121Z,17.17
2022-10-29T03:52:48.103Z,17.14
2022-10-29T03:53:48.109Z,17.20
2022-10-29T03:54:48.084Z,17.26
2022-10-29T03:55:48.074Z,17.13
2022-10-29T03:56:48.061Z,17.20
2022-10-29T03:57:48.053Z,17.06
2022-10-29T03:58:48.072Z,17.03
2022-10-29T03:59:49.984Z,17.14
2022-10-29T04:00:48.019Z,17.10
2022-10-29T04:01:48.190Z,17.08
2022-10-29T04:02:48.047Z,17.08
2022-10-29T04:03:48.019Z,17.08
2022-10-29T04:04:47.978Z,17.10
2022-10-29T04:05:47.981Z,17.00
2022-10-29T04:06:47.955Z,17.06
2022-10-29T04:07:47.943Z,17.10
2022-10-29T04:08:47.943Z,17.11
2022-10-29T04:09:47.922Z,17.07
2022-10-29T04:10:47.913Z,17.11
2022-10-29T04:11:47.898Z,17.04
2022-10-29T04:12:47.895Z,17.03
2022-10-29T04:13:47.886Z,17.10
2022-10-29T04:14:47.953Z,17.00
2022-10-29T04:15:47.887Z,16.99
2022-10-29T04:16:47.847Z,17.06
2022-10-29T04:17:47.833Z,16.99
2022-10-29T04:18:47.831Z,17.04
2022-10-29T04:19:47.813Z,17.04
2022-10-29T04:22:22.898Z,17.00
2022-10-29T04:27:07.900Z,16.98
2022-10-29T04:27:08.090Z,17.04
2022-10-29T04:28:42.006Z,17.13
2022-10-29T04:28:48.723Z,16.98
2022-10-29T04:29:47.706Z,17.06
2022-10-29T04:30:47.706Z,17.06
2022-10-29T04:31:47.680Z,17.00
2022-10-29T04:32:47.678Z,17.00
2022-10-29T04:33:47.672Z,17.03
2022-10-29T04:34:47.649Z,16.99
2022-10-29T04:35:47.644Z,17.08
2022-10-29T04:36:47.631Z,16.98
2022-10-29T04:37:47.634Z,17.10
2022-10-29T04:38:47.627Z,16.98
2022-10-29T04:39:47.595Z,17.07
2022-10-29T04:40:47.582Z,16.98
2022-10-29T04:41:47.585Z,17.07
2022-10-29T04:42:47.561Z,16.98
2022-10-29T04:43:47.558Z,16.93
2022-10-29T04:44:47.540Z,16.98
2022-10-29T04:45:47.531Z,16.93
2022-10-29T04:46:47.518Z,16.93
2022-10-29T04:47:47.513Z,16.93
2022-10-29T04:48:47.582Z,17.00
2022-10-29T04:49:47.483Z,16.93
2022-10-29T04:50:47.478Z,17.03
2022-10-29T04:51:47.461Z,16.92
2022-10-29T04:52:47.451Z,16.95
2022-10-29T04:53:47.472Z,16.90
2022-10-29T04:54:47.432Z,16.86
2022-10-29T04:55:47.419Z,16.92
2022-10-29T04:56:47.410Z,16.89
2022-10-29T04:57:47.396Z,16.89
2022-10-29T04:58:47.402Z,16.90
2022-10-29T04:59:47.374Z,16.90
2022-10-29T05:00:47.435Z,16.85
2022-10-29T05:01:47.360Z,16.85
2022-10-29T05:02:47.343Z,16.88
2022-10-29T05:03:47.345Z,16.90
2022-10-29T05:04:47.323Z,16.93
2022-10-29T05:05:47.309Z,16.90
2022-10-29T05:06:47.299Z,16.86
2022-10-29T05:07:47.287Z,16.89
2022-10-29T05:08:47.306Z,16.89
2022-10-29T05:09:47.291Z,16.95
2022-10-29T05:10:47.259Z,16.92
2022-10-29T05:11:47.247Z,16.88
2022-10-29T05:12:47.240Z,16.88
2022-10-29T05:13:47.231Z,16.86
2022-10-29T05:14:47.211Z,16.80
2022-10-29T05:15:52.749Z,16.90
2022-10-29T05:16:48.188Z,16.88
2022-10-29T05:17:47.182Z,16.90
2022-10-29T05:18:47.184Z,16.83
2022-10-29T05:19:47.156Z,16.83
2022-10-29T05:20:47.146Z,16.86
2022-10-29T05:21:47.135Z,16.90
2022-10-29T05:22:47.126Z,16.89
2022-10-29T05:23:47.125Z,16.89
2022-10-29T05:24:47.110Z,16.86
2022-10-29T05:25:47.110Z,16.88
2022-10-29T05:26:47.085Z,16.92
2022-10-29T05:27:47.071Z,16.90
2022-10-29T05:28:47.074Z,16.80
2022-10-29T05:29:47.048Z,16.85
2022-10-29T05:30:47.041Z,16.92
2022-10-29T05:31:47.027Z,16.83
2022-10-29T05:32:47.017Z,16.81
2022-10-29T05:33:49.037Z,16.81
2022-10-29T05:34:46.996Z,16.81
2022-10-29T05:35:47.033Z,16.86
2022-10-29T05:36:46.971Z,16.83
2022-10-29T05:37:46.962Z,16.80
2022-10-29T05:38:46.974Z,16.78
2022-10-29T05:39:46.940Z,16.78
2022-10-29T05:40:46.930Z,16.78
2022-10-29T05:41:46.934Z,16.78
2022-10-29T05:42:47.457Z,16.74
2022-10-29T05:43:46.906Z,16.81
2022-10-29T05:44:46.888Z,16.75
2022-10-29T05:45:46.873Z,16.83
2022-10-29T05:46:46.864Z,16.75
2022-10-29T05:47:46.873Z,16.78
2022-10-29T05:48:46.858Z,16.78
2022-10-29T05:49:46.831Z,16.75
2022-10-29T05:50:46.823Z,16.77
2022-10-29T05:51:46.812Z,16.71
2022-10-29T05:52:46.797Z,16.71
2022-10-29T05:53:46.863Z,16.74
2022-10-29T05:54:46.780Z,16.74
2022-10-29T05:55:46.769Z,16.73
2022-10-29T05:56:46.761Z,16.70
2022-10-29T05:57:46.759Z,16.71
2022-10-29T05:58:46.782Z,16.74
2022-10-29T05:59:46.722Z,16.70
2022-10-29T06:00:46.717Z,16.63
2022-10-29T06:01:46.867Z,16.68
2022-10-29T06:02:46.732Z,16.62
2022-10-29T06:03:46.768Z,16.67
2022-10-29T06:04:46.671Z,16.63
2022-10-29T06:05:46.687Z,16.60
2022-10-29T06:06:46.730Z,16.71
2022-10-29T06:07:46.633Z,16.59
2022-10-29T06:08:46.638Z,16.63
2022-10-29T06:09:46.617Z,16.62
2022-10-29T06:10:46.636Z,16.59
2022-10-29T06:11:46.589Z,16.60
2022-10-29T06:12:46.579Z,16.65
2022-10-29T06:13:46.598Z,16.65
2022-10-29T06:14:46.569Z,16.67
2022-10-29T06:15:46.553Z,16.67
2022-10-29T06:16:46.537Z,16.60
2022-10-29T06:17:46.536Z,16.70
2022-10-29T06:18:46.532Z,16.73
2022-10-29T06:19:46.511Z,16.73
2022-10-29T06:20:46.492Z,16.71
2022-10-29T06:21:46.480Z,16.73
2022-10-29T06:22:46.472Z,16.75
2022-10-29T06:23:46.470Z,16.75
2022-10-29T06:24:46.448Z,16.80
2022-10-29T06:25:46.439Z,16.88
2022-10-29T06:26:46.426Z,16.85
2022-10-29T06:27:46.469Z,16.96
2022-10-29T06:28:46.489Z,16.98
2022-10-29T06:29:46.460Z,17.06
2022-10-29T06:30:46.430Z,17.15
2022-10-29T06:31:46.377Z,17.20
2022-10-29T06:32:46.362Z,17.41
2022-10-29T06:33:46.374Z,17.44
2022-10-29T06:34:46.357Z,17.47
2022-10-29T06:35:46.337Z,17.50
2022-10-29T06:36:46.354Z,17.47
2022-10-29T06:37:46.313Z,17.62
2022-10-29T06:38:46.327Z,17.59
2022-10-29T06:39:46.285Z,17.62
2022-10-29T06:40:46.276Z,17.59
2022-10-29T06:41:46.306Z,17.76
2022-10-29T06:42:46.261Z,17.81
2022-10-29T06:43:46.271Z,17.95
2022-10-29T06:44:46.238Z,18.02
2022-10-29T06:45:46.278Z,18.10
2022-10-29T06:46:46.220Z,18.25
2022-10-29T06:47:46.198Z,18.27
2022-10-29T06:48:46.241Z,18.21
2022-10-29T06:49:46.184Z,18.25
2022-10-29T06:50:46.182Z,18.40
2022-10-29T06:51:46.161Z,18.47
2022-10-29T06:52:46.198Z,18.55
2022-10-29T06:53:46.157Z,18.72
2022-10-29T06:54:46.141Z,18.77
2022-10-29T06:55:46.118Z,18.90
2022-10-29T06:56:46.102Z,18.98
2022-10-29T06:57:46.095Z,19.05
2022-10-29T06:58:46.092Z,19.20
2022-10-29T06:59:46.073Z,19.32
2022-10-29T07:00:46.195Z,19.42
2022-10-29T07:01:46.094Z,19.51
2022-10-29T07:02:46.041Z,19.58
2022-10-29T07:03:46.044Z,19.63
2022-10-29T07:04:46.021Z,19.69
2022-10-29T07:05:46.012Z,19.75
2022-10-29T07:06:46.018Z,19.87
2022-10-29T07:07:45.995Z,19.83
2022-10-29T07:08:45.997Z,19.87
2022-10-29T07:09:45.985Z,19.86
2022-10-29T07:10:45.962Z,19.79
2022-10-29T07:11:45.966Z,19.78
2022-10-29T07:12:45.957Z,19.79
2022-10-29T07:13:45.970Z,19.84
2022-10-29T07:14:45.927Z,19.93
2022-10-29T07:15:45.900Z,19.76
2022-10-29T07:16:45.901Z,19.91
2022-10-29T07:17:45.904Z,19.94
2022-10-29T07:18:45.882Z,19.93
2022-10-29T07:19:45.861Z,20.09
2022-10-29T07:20:45.858Z,20.25
2022-10-29T07:21:45.834Z,20.23
2022-10-29T07:22:45.827Z,20.30
2022-10-29T07:23:45.823Z,20.35
2022-10-29T07:24:45.803Z,20.42
2022-10-29T07:25:45.819Z,20.50
2022-10-29T07:26:45.779Z,20.50
2022-10-29T07:27:45.906Z,20.58
2022-10-29T07:28:45.804Z,20.54
2022-10-29T07:29:45.755Z,20.66
2022-10-29T07:30:45.749Z,20.61
2022-10-29T07:31:45.727Z,20.66
2022-10-29T07:32:45.777Z,20.68
2022-10-29T07:33:45.731Z,20.77
2022-10-29T07:34:45.697Z,20.74
2022-10-29T07:35:45.683Z,20.74
2022-10-29T07:36:45.672Z,20.89
2022-10-29T07:37:45.658Z,20.95
2022-10-29T07:38:45.734Z,20.93
2022-10-29T07:39:45.641Z,20.91
2022-10-29T07:40:45.634Z,20.96
2022-10-29T07:41:45.609Z,20.87
2022-10-29T07:42:45.608Z,20.81
2022-10-29T07:43:45.600Z,20.80
2022-10-29T07:44:45.582Z,20.81
2022-10-29T07:45:45.565Z,20.91
2022-10-29T07:46:45.555Z,21.08
2022-10-29T07:47:45.544Z,21.14
2022-10-29T07:48:45.546Z,21.17
2022-10-29T07:49:45.539Z,21.23
2022-10-29T07:50:45.511Z,21.35
2022-10-29T07:51:45.498Z,21.41
2022-10-29T07:52:45.490Z,21.51
2022-10-29T07:53:45.488Z,21.54
2022-10-29T07:54:45.469Z,21.66
2022-10-29T07:55:45.458Z,21.63
2022-10-29T07:56:47.741Z,21.60
2022-10-29T07:57:45.432Z,21.61
2022-10-29T07:58:45.514Z,21.54
2022-10-29T07:59:45.412Z,21.56
2022-10-29T08:00:45.454Z,21.42
2022-10-29T08:01:45.507Z,21.42
2022-10-29T08:02:45.385Z,21.41
2022-10-29T08:03:45.378Z,21.51
2022-10-29T08:04:45.360Z,21.51
2022-10-29T08:05:45.372Z,21.64
2022-10-29T08:06:45.357Z,21.60
2022-10-29T08:07:45.328Z,21.56
2022-10-29T08:08:45.327Z,21.69
2022-10-29T08:09:45.304Z,21.64
2022-10-29T08:10:45.295Z,21.75
2022-10-29T08:12:45.273Z,21.92
2022-10-29T08:13:45.274Z,21.72
2022-10-29T08:14:45.252Z,21.72
2022-10-29T08:15:45.238Z,21.71
2022-10-29T08:16:45.231Z,21.74
2022-10-29T08:17:45.219Z,21.85
2022-10-29T08:18:45.216Z,21.76
2022-10-29T08:19:45.198Z,21.66
2022-10-29T08:20:45.186Z,21.66
2022-10-29T08:21:45.192Z,21.66
2022-10-29T08:22:45.165Z,21.64
2022-10-29T08:23:45.169Z,21.66
2022-10-29T08:24:45.144Z,21.57
2022-10-29T08:25:45.135Z,21.71
2022-10-29T08:26:45.137Z,21.74
2022-10-29T08:27:45.192Z,21.57
2022-10-29T08:28:45.109Z,21.48
2022-10-29T08:29:45.089Z,21.41
2022-10-29T08:30:45.101Z,21.51
2022-10-29T08:31:45.084Z,21.54
2022-10-29T08:32:45.055Z,21.60
2022-10-29T08:33:45.057Z,21.56
2022-10-29T08:34:45.033Z,21.59
2022-10-29T08:35:45.025Z,21.54
2022-10-29T08:36:45.012Z,21.54
2022-10-29T08:37:45.018Z,21.54
2022-10-29T08:38:45.000Z,21.66
2022-10-29T08:39:44.986Z,21.54
2022-10-29T08:40:44.967Z,21.54
2022-10-29T08:41:44.959Z,21.64
2022-10-29T08:42:44.951Z,21.63
2022-10-29T08:43:47.518Z,21.69
2022-10-29T08:44:44.925Z,21.92
2022-10-29T08:45:44.915Z,21.83
2022-10-29T08:46:44.907Z,22.06
2022-10-29T08:47:44.894Z,22.12
2022-10-29T08:48:44.890Z,22.17
2022-10-29T08:49:44.872Z,22.20
2022-10-29T08:50:44.863Z,22.31
2022-10-29T08:51:44.850Z,22.47
2022-10-29T08:52:53.194Z,22.53
2022-10-29T08:53:54.333Z,22.47
2022-10-29T08:54:45.816Z,22.65
2022-10-29T08:55:44.807Z,22.60
2022-10-29T08:56:44.801Z,22.78
2022-10-29T08:57:44.787Z,22.80
2022-10-29T08:58:44.787Z,22.84
2022-10-29T08:59:44.763Z,22.90
2022-10-29T09:00:44.825Z,22.86
2022-10-29T09:01:44.827Z,22.86
2022-10-29T09:02:44.731Z,22.89
2022-10-29T09:03:44.732Z,22.93
2022-10-29T09:04:44.709Z,22.90
2022-10-29T09:05:44.700Z,22.94
2022-10-29T09:06:44.689Z,23.08
2022-10-29T09:07:44.681Z,23.11
2022-10-29T09:08:44.681Z,23.20
2022-10-29T09:09:44.675Z,23.26
2022-10-29T09:10:44.646Z,23.32
2022-10-29T09:11:44.638Z,23.19
2022-10-29T09:12:44.625Z,23.19
2022-10-29T09:13:44.624Z,23.14
2022-10-29T09:14:44.604Z,23.20
2022-10-29T09:15:44.594Z,23.08
2022-10-29T09:16:44.601Z,23.08
2022-10-29T09:17:44.576Z,23.09
2022-10-29T09:18:44.570Z,23.14
2022-10-29T09:19:44.552Z,23.09
2022-10-29T09:20:44.541Z,23.22
2022-10-29T09:21:44.531Z,23.32
2022-10-29T09:22:44.517Z,23.52
2022-10-29T09:23:44.517Z,23.49
2022-10-29T09:24:44.497Z,23.65
2022-10-29T09:25:44.505Z,23.86
2022-10-29T09:26:44.482Z,24.04
2022-10-29T09:27:44.467Z,24.17
2022-10-29T09:28:44.471Z,24.42
2022-10-29T09:29:44.445Z,24.63
2022-10-29T09:30:44.433Z,24.87
2022-10-29T09:31:44.428Z,25.25
2022-10-29T09:32:44.459Z,25.34
2022-10-29T09:33:44.415Z,25.62
2022-10-29T09:34:44.393Z,25.67
2022-10-29T09:35:44.384Z,25.57
2022-10-29T09:36:44.371Z,25.71
2022-10-29T09:37:44.363Z,25.68
2022-10-29T09:38:44.363Z,25.59
2022-10-29T09:39:44.364Z,25.65
2022-10-29T09:40:44.333Z,25.56
2022-10-29T09:41:44.336Z,25.34
2022-10-29T09:42:44.306Z,25.02
2022-10-29T09:43:44.310Z,24.94
2022-10-29T09:44:44.287Z,24.68
2022-10-29T09:45:44.278Z,24.50
2022-10-29T09:46:44.265Z,24.14
2022-10-29T09:47:44.258Z,23.94
2022-10-29T09:48:44.268Z,23.82
2022-10-29T09:49:44.241Z,23.80
2022-10-29T09:50:44.224Z,23.71
2022-10-29T09:51:44.215Z,23.64
2022-10-29T09:52:44.219Z,23.65
2022-10-29T09:53:44.218Z,23.53
2022-10-29T09:54:44.183Z,23.42
2022-10-29T09:55:44.175Z,23.29
2022-10-29T09:56:44.160Z,23.14
2022-10-29T09:57:44.181Z,23.07
2022-10-29T09:58:44.142Z,22.92
2022-10-29T09:59:44.133Z,22.87
2022-10-29T10:00:44.125Z,22.75
2022-10-29T10:01:44.224Z,22.78
2022-10-29T10:02:44.159Z,22.72
2022-10-29T10:03:44.091Z,22.65
2022-10-29T10:04:44.077Z,22.52
2022-10-29T10:05:44.069Z,22.39
2022-10-29T10:06:44.056Z,22.34
2022-10-29T10:07:44.060Z,22.17
2022-10-29T10:08:44.033Z,22.13
2022-10-29T10:09:44.024Z,22.10
2022-10-29T10:10:44.012Z,21.99
2022-10-29T10:11:44.001Z,21.94
2022-10-29T10:12:44.004Z,21.90
2022-10-29T10:13:44.002Z,21.88
2022-10-29T10:14:43.970Z,21.79
2022-10-29T10:15:43.959Z,21.78
2022-10-29T10:16:43.946Z,21.78
2022-10-29T10:17:43.956Z,21.75
2022-10-29T10:19:43.917Z,21.66
2022-10-29T10:20:43.903Z,21.64
2022-10-29T10:21:43.895Z,21.57
2022-10-29T10:22:43.902Z,21.66
2022-10-29T10:23:43.874Z,21.51
2022-10-29T10:24:43.862Z,21.71
2022-10-29T10:25:43.919Z,21.64
2022-10-29T10:26:43.839Z,21.69
2022-10-29T10:27:43.849Z,21.67
2022-10-29T10:28:43.822Z,21.75
2022-10-29T10:29:43.823Z,21.69
2022-10-29T10:30:43.793Z,21.64
2022-10-29T10:31:43.790Z,21.69
2022-10-29T10:32:43.782Z,21.69
2022-10-29T10:33:43.770Z,21.74
2022-10-29T10:34:43.757Z,21.71
2022-10-29T10:35:43.741Z,21.64
2022-10-29T10:36:43.733Z,21.74
2022-10-29T10:37:43.730Z,21.66
2022-10-29T10:38:43.705Z,21.61
2022-10-29T10:39:43.697Z,21.75
2022-10-29T10:40:43.685Z,21.74
2022-10-29T10:41:43.675Z,21.75
2022-10-29T10:42:43.675Z,21.91
2022-10-29T10:43:43.660Z,21.83
2022-10-29T10:44:43.640Z,21.90
2022-10-29T10:45:43.651Z,21.83
2022-10-29T10:46:43.617Z,21.82
2022-10-29T10:47:43.623Z,21.90
2022-10-29T10:48:43.596Z,21.83
2022-10-29T10:49:43.587Z,21.88
2022-10-29T10:50:43.575Z,21.83
2022-10-29T10:51:43.566Z,21.94
2022-10-29T10:52:43.552Z,21.91
2022-10-29T10:53:43.552Z,21.94
2022-10-29T10:54:43.575Z,21.85
2022-10-29T10:55:43.522Z,21.97
2022-10-29T10:56:43.517Z,21.97
2022-10-29T10:57:43.499Z,21.92
2022-10-29T10:58:43.494Z,21.94
2022-10-29T10:59:43.475Z,21.82
2022-10-29T11:00:43.518Z,21.88
2022-10-29T11:01:43.640Z,21.91
2022-10-29T11:02:43.443Z,21.76
2022-10-29T11:03:43.449Z,21.75
2022-10-29T11:04:43.431Z,21.76
2022-10-29T11:05:43.408Z,21.74
2022-10-29T11:06:43.397Z,21.81
2022-10-29T11:07:43.387Z,21.91
2022-10-29T11:08:43.384Z,21.72
2022-10-29T11:09:43.364Z,21.72
2022-10-29T11:10:43.356Z,21.75
2022-10-29T11:11:43.344Z,21.64
2022-10-29T11:12:43.331Z,21.61
2022-10-29T11:13:43.409Z,21.59
2022-10-29T11:14:43.310Z,21.69
2022-10-29T11:15:43.301Z,21.59
2022-10-29T11:16:43.284Z,21.57
2022-10-29T11:17:43.291Z,21.66
2022-10-29T11:18:43.276Z,21.71
2022-10-29T11:19:43.278Z,21.69
2022-10-29T11:20:43.240Z,21.61
2022-10-29T11:21:43.264Z,21.59
2022-10-29T11:22:43.234Z,21.59
2022-10-29T11:23:43.207Z,21.57
2022-10-29T11:24:43.194Z,21.60
2022-10-29T11:25:43.186Z,21.61
2022-10-29T11:26:43.172Z,21.69
2022-10-29T11:27:43.172Z,21.56
2022-10-29T11:28:43.151Z,21.63
2022-10-29T11:29:48.983Z,21.66
2022-10-29T11:30:44.156Z,21.60
2022-10-29T11:31:43.121Z,21.50
2022-10-29T11:32:43.119Z,21.44
2022-10-29T11:33:43.117Z,21.39
2022-10-29T11:34:43.085Z,21.26
2022-10-29T11:35:43.083Z,21.32
2022-10-29T11:36:43.060Z,21.35
2022-10-29T11:37:43.068Z,21.35
2022-10-29T11:38:43.046Z,21.35
2022-10-29T11:39:43.028Z,21.30
2022-10-29T11:40:43.017Z,21.41
2022-10-29T11:41:43.006Z,21.48
2022-10-29T11:42:43.004Z,21.54
2022-10-29T11:43:42.988Z,21.50
2022-10-29T11:44:42.971Z,21.57
2022-10-29T11:45:42.964Z,21.63
2022-10-29T11:46:42.948Z,21.63
2022-10-29T11:47:42.952Z,21.64
2022-10-29T11:48:42.928Z,21.57
2022-10-29T11:49:42.948Z,21.59
2022-10-29T11:50:42.907Z,21.56
2022-10-29T11:51:42.895Z,21.63
2022-10-29T11:52:42.883Z,21.57
2022-10-29T11:53:42.906Z,21.54
2022-10-29T11:54:42.873Z,21.59
2022-10-29T11:55:42.851Z,21.51
2022-10-29T11:56:42.839Z,21.57
2022-10-29T11:57:42.828Z,21.56
2022-10-29T11:58:42.825Z,21.59
2022-10-29T11:59:42.839Z,21.59
2022-10-29T12:00:42.798Z,21.57
2022-10-29T12:01:42.836Z,21.57
2022-10-29T12:02:42.773Z,21.57
2022-10-29T12:03:42.838Z,21.71
2022-10-29T12:04:42.751Z,21.67
2022-10-29T12:05:42.768Z,21.67
2022-10-29T12:06:42.729Z,21.63
2022-10-29T12:07:42.724Z,21.61
2022-10-29T12:08:42.713Z,21.76
2022-10-29T12:09:42.699Z,21.76
2022-10-29T12:10:42.682Z,21.60
2022-10-29T12:11:43.191Z,21.72
2022-10-29T12:12:42.663Z,21.69
2022-10-29T12:13:42.672Z,21.59
2022-10-29T12:14:42.638Z,21.61
2022-10-29T12:15:42.629Z,21.60
2022-10-29T12:16:42.622Z,21.72
2022-10-29T12:17:42.665Z,21.61
2022-10-29T12:18:42.632Z,21.60
2022-10-29T12:19:42.586Z,21.63
2022-10-29T12:20:42.573Z,21.66
2022-10-29T12:21:42.581Z,21.63
2022-10-29T12:22:42.548Z,21.63
2022-10-29T12:23:42.551Z,21.64
2022-10-29T12:24:42.527Z,21.61
2022-10-29T12:25:42.543Z,21.57
2022-10-29T12:26:42.504Z,21.56
2022-10-29T12:27:42.549Z,21.60
2022-10-29T12:28:42.500Z,21.54
2022-10-29T12:29:42.476Z,21.53
2022-10-29T12:30:42.461Z,21.69
2022-10-29T12:31:42.458Z,21.63
2022-10-29T12:32:42.442Z,21.59
2022-10-29T12:33:42.437Z,21.64
2022-10-29T12:34:42.418Z,21.63
2022-10-29T12:35:42.420Z,21.69
2022-10-29T12:36:42.395Z,21.66
2022-10-29T12:37:42.402Z,21.67
2022-10-29T12:38:42.386Z,21.75
2022-10-29T12:39:42.361Z,21.66
2022-10-29T12:40:42.352Z,21.64
2022-10-29T12:41:42.337Z,21.63
2022-10-29T12:42:42.328Z,21.67
2022-10-29T12:43:42.325Z,21.72
2022-10-29T12:44:45.062Z,21.60
2022-10-29T12:46:06.464Z,21.67
2022-10-29T12:46:43.281Z,21.56
2022-10-29T12:47:42.270Z,21.59
2022-10-29T12:48:42.269Z,21.51
2022-10-29T12:49:42.254Z,21.45
2022-10-29T12:50:42.244Z,21.44
2022-10-29T12:51:42.337Z,21.44
2022-10-29T12:52:42.217Z,21.42
2022-10-29T12:53:42.233Z,21.44
2022-10-29T12:54:42.196Z,21.42
2022-10-29T12:55:42.182Z,21.41
2022-10-29T12:56:45.047Z,21.39
2022-10-29T12:57:43.166Z,21.35
2022-10-29T12:58:42.160Z,21.35
2022-10-29T12:59:42.138Z,21.41